Time;durP1;ratioP1;P1;durP2;ratioP2;P2;SDS_P1;SDS_P2;PMS_P1;PMS_P2;Temp;Humidity;BMP_temperature;BMP_pressure;BME280_temperature;BME280_humidity;BME280_pressure;Samples;Min_cycle;Max_cycle;Signal;HPM_P1;HPM_P2
2021/05/04 00:00:21;;;;;;;5.13;1.87;;;11.60;99.90;;;;;;5014767;28;20571;-90
2021/05/04 00:02:52;;;;;;;3.60;1.93;;;11.60;99.90;;;;;;5014351;28;20236;-89
2021/05/04 00:05:22;;;;;;;2.37;1.63;;;11.70;99.90;;;;;;4997037;28;20292;-90
2021/05/04 00:07:52;;;;;;;3.43;1.80;;;11.70;99.90;;;;;;4999672;28;20622;-89
2021/05/04 00:10:23;;;;;;;3.73;1.50;;;11.60;99.90;;;;;;5013941;28;20260;-90
2021/05/04 00:12:54;;;;;;;3.37;1.80;;;11.60;99.90;;;;;;5014219;28;20230;-90
2021/05/04 00:15:25;;;;;;;2.57;1.40;;;11.70;99.90;;;;;;5013529;28;20236;-90
2021/05/04 00:17:55;;;;;;;3.70;2.00;;;11.60;99.90;;;;;;5016872;28;20213;-90
2021/05/04 00:20:26;;;;;;;4.17;2.10;;;11.60;99.90;;;;;;5018434;28;20946;-90
2021/05/04 00:22:55;;;;;;;7.17;2.47;;;11.60;99.90;;;;;;5016699;28;20277;-90
2021/05/04 00:25:26;;;;;;;5.90;2.43;;;11.70;99.90;;;;;;5013973;28;20291;-90
2021/05/04 00:27:56;;;;;;;4.23;2.13;;;11.90;99.90;;;;;;5014282;28;20305;-91
2021/05/04 00:30:27;;;;;;;7.10;2.47;;;12.00;99.90;;;;;;5014320;28;20270;-90
2021/05/04 00:32:58;;;;;;;4.90;1.73;;;11.80;99.90;;;;;;5019024;28;20742;-90
2021/05/04 00:35:29;;;;;;;1.93;1.40;;;11.90;99.90;;;;;;5012992;28;20205;-89
2021/05/04 00:38:00;;;;;;;2.77;1.60;;;11.90;99.90;;;;;;5017785;28;20209;-89
2021/05/04 00:40:30;;;;;;;3.57;1.80;;;12.00;99.90;;;;;;5036226;28;20232;-90
2021/05/04 00:43:01;;;;;;;3.07;1.90;;;11.90;99.90;;;;;;5041041;28;20661;-89
2021/05/04 00:45:33;;;;;;;2.77;1.70;;;12.10;99.90;;;;;;5036583;28;20240;-89
2021/05/04 00:48:04;;;;;;;1.63;1.53;;;12.10;99.90;;;;;;5037025;28;20240;-90
2021/05/04 00:50:35;;;;;;;2.60;1.97;;;12.00;99.90;;;;;;5019951;28;20689;-90
2021/05/04 00:53:06;;;;;;;4.23;1.70;;;12.20;99.90;;;;;;5036977;28;20249;-90
2021/05/04 00:55:38;;;;;;;2.60;1.63;;;12.30;99.90;;;;;;5019091;28;20213;-90
2021/05/04 00:58:09;;;;;;;2.60;1.57;;;12.40;99.90;;;;;;5039697;28;20209;-90
2021/05/04 01:00:42;;;;;;;4.17;1.60;;;12.50;99.90;;;;;;5037658;28;20224;-90
2021/05/04 01:03:12;;;;;;;2.97;1.40;;;12.50;99.90;;;;;;5036659;28;20213;-90
2021/05/04 01:05:43;;;;;;;2.87;1.83;;;12.60;99.90;;;;;;5036643;28;20235;-91
2021/05/04 01:08:13;;;;;;;3.43;1.70;;;12.60;99.90;;;;;;5037147;28;20228;-91
2021/05/04 01:10:44;;;;;;;3.93;1.47;;;12.70;99.90;;;;;;5038700;28;20323;-91
2021/05/04 01:13:14;;;;;;;2.20;1.37;;;12.60;99.90;;;;;;5036582;28;20208;-91
2021/05/04 01:15:47;;;;;;;3.73;1.40;;;12.60;99.90;;;;;;5041270;28;20208;-91
2021/05/04 01:18:17;;;;;;;2.13;1.20;;;12.70;99.90;;;;;;5056215;28;20239;-90
2021/05/04 01:20:51;;;;;;;3.97;1.60;;;12.50;99.90;;;;;;5056469;28;20346;-91
2021/05/04 01:23:21;;;;;;;3.60;1.60;;;12.50;99.90;;;;;;5056350;28;20230;-90
2021/05/04 01:25:51;;;;;;;2.57;1.20;;;12.50;99.90;;;;;;5038592;28;20714;-91
2021/05/04 01:28:21;;;;;;;2.10;1.20;;;12.60;99.90;;;;;;5056880;28;20559;-90
2021/05/04 01:30:51;;;;;;;2.70;1.57;;;12.60;99.90;;;;;;5056119;28;20718;-91
2021/05/04 01:33:22;;;;;;;2.57;1.30;;;12.40;99.90;;;;;;5056763;28;20235;-90
2021/05/04 01:35:54;;;;;;;1.67;1.40;;;12.50;99.90;;;;;;5056551;28;20204;-89
2021/05/04 01:38:25;;;;;;;4.27;1.67;;;12.50;99.90;;;;;;5056787;28;20250;-90
2021/05/04 01:40:56;;;;;;;2.83;1.43;;;12.50;99.90;;;;;;5057854;28;20214;-90
2021/05/04 01:43:26;;;;;;;2.83;1.70;;;12.60;99.90;;;;;;5059793;28;20208;-93
2021/05/04 01:45:57;;;;;;;4.13;2.23;;;12.60;99.90;;;;;;5056380;28;20254;-89
2021/05/04 01:48:28;;;;;;;3.10;1.60;;;12.50;99.90;;;;;;5057928;28;20204;-90
2021/05/04 01:50:59;;;;;;;3.10;1.70;;;12.40;99.90;;;;;;5058733;28;20236;-90
2021/05/04 01:53:30;;;;;;;3.57;2.00;;;12.40;99.90;;;;;;5059419;28;20220;-90
2021/05/04 01:56:00;;;;;;;3.10;1.57;;;12.40;99.90;;;;;;5060889;28;20212;-89
2021/05/04 01:58:31;;;;;;;3.83;1.90;;;12.50;99.90;;;;;;5056381;28;20240;-90
2021/05/04 02:01:02;;;;;;;2.63;2.00;;;12.40;99.90;;;;;;5059169;28;20212;-90
2021/05/04 02:03:33;;;;;;;3.47;1.87;;;12.40;99.90;;;;;;5058237;28;20553;-90
2021/05/04 02:06:05;;;;;;;3.30;1.63;;;12.30;99.90;;;;;;5070284;28;20212;-90
2021/05/04 02:08:36;;;;;;;2.37;1.70;;;12.30;99.90;;;;;;5064136;28;20235;-91
2021/05/04 02:11:07;;;;;;;5.70;1.70;;;12.30;99.90;;;;;;5061396;28;20235;-90
2021/05/04 02:13:37;;;;;;;2.47;1.63;;;12.10;99.90;;;;;;5073062;28;20200;-91
2021/05/04 02:16:08;;;;;;;2.47;2.10;;;12.10;99.90;;;;;;5066117;28;20208;-91
2021/05/04 02:18:39;;;;;;;2.37;2.10;;;12.10;99.90;;;;;;5037182;28;20205;-90
2021/05/04 02:21:10;;;;;;;4.60;2.00;;;12.10;99.90;;;;;;5037386;28;20228;-91
2021/05/04 02:23:41;;;;;;;2.10;1.50;;;12.00;99.90;;;;;;5019461;28;20236;-91
2021/05/04 02:26:12;;;;;;;3.10;1.63;;;11.90;99.90;;;;;;5036172;28;20228;-90
2021/05/04 02:28:43;;;;;;;1.70;1.60;;;11.80;99.90;;;;;;5037259;28;20213;-91
2021/05/04 02:31:12;;;;;;;2.63;1.60;;;11.80;99.90;;;;;;5037092;28;20225;-91
2021/05/04 02:33:44;;;;;;;3.37;1.93;;;11.70;99.90;;;;;;5037127;28;20209;-91
2021/05/04 02:36:15;;;;;;;2.47;1.83;;;11.70;99.90;;;;;;5035547;28;20263;-89
2021/05/04 02:38:46;;;;;;;2.33;1.50;;;11.80;99.90;;;;;;5036178;28;20209;-90
2021/05/04 02:41:17;;;;;;;4.07;2.00;;;11.70;99.90;;;;;;5036323;28;20205;-89
2021/05/04 02:43:47;;;;;;;3.47;1.80;;;11.70;99.90;;;;;;5047125;28;20275;-89
2021/05/04 02:46:18;;;;;;;6.30;1.70;;;11.80;99.90;;;;;;5048441;28;20216;-89
2021/05/04 02:48:48;;;;;;;2.37;1.77;;;11.90;99.90;;;;;;5044802;28;20205;-90
2021/05/04 02:51:20;;;;;;;3.13;1.90;;;12.00;99.90;;;;;;5035704;28;20260;-90
2021/05/04 02:53:50;;;;;;;4.23;2.00;;;12.00;99.90;;;;;;5035850;28;20212;-90
2021/05/04 02:56:20;;;;;;;3.23;1.93;;;12.00;99.90;;;;;;5035359;28;20201;-90
2021/05/04 02:58:51;;;;;;;2.37;1.93;;;12.00;99.90;;;;;;5035303;28;20843;-89
2021/05/04 03:01:21;;;;;;;3.97;1.97;;;12.10;99.90;;;;;;5035836;28;20272;-89
2021/05/04 03:03:51;;;;;;;3.70;1.93;;;12.00;99.90;;;;;;5035646;28;20296;-90
2021/05/04 03:06:23;;;;;;;2.30;2.10;;;11.90;99.90;;;;;;5036604;28;20209;-91
2021/05/04 03:08:53;;;;;;;2.97;2.27;;;12.00;99.90;;;;;;5042412;28;20239;-91
2021/05/04 03:11:23;;;;;;;3.07;1.77;;;12.00;99.90;;;;;;5050183;28;20220;-90
2021/05/04 03:13:53;;;;;;;2.27;1.90;;;12.00;99.90;;;;;;5056029;28;20209;-90
2021/05/04 03:16:24;;;;;;;3.53;2.50;;;12.00;99.90;;;;;;5035732;28;20215;-91
2021/05/04 03:18:55;;;;;;;3.33;2.20;;;11.80;99.90;;;;;;5053747;28;20209;-91
2021/05/04 03:21:27;;;;;;;3.80;2.40;;;11.90;99.90;;;;;;5044572;28;20598;-91
2021/05/04 03:23:58;;;;;;;3.77;2.60;;;11.80;99.90;;;;;;5035885;28;20292;-91
2021/05/04 03:26:29;;;;;;;6.50;2.67;;;11.80;99.90;;;;;;5033688;28;20205;-90
2021/05/04 03:29:00;;;;;;;3.90;2.50;;;11.80;99.90;;;;;;5017658;28;20567;-90
2021/05/04 03:31:29;;;;;;;2.40;2.20;;;11.90;99.90;;;;;;5033872;28;20287;-90
2021/05/04 03:34:00;;;;;;;2.70;2.50;;;11.90;99.90;;;;;;5034628;28;20657;-90
2021/05/04 03:36:31;;;;;;;5.00;2.57;;;11.90;99.90;;;;;;5033641;28;20222;-90
2021/05/04 03:39:01;;;;;;;3.63;2.70;;;11.80;99.90;;;;;;5034063;28;20205;-90
2021/05/04 03:41:32;;;;;;;2.60;2.40;;;11.80;99.90;;;;;;5034362;28;20208;-90
2021/05/04 03:44:02;;;;;;;3.43;2.23;;;11.90;99.90;;;;;;5035591;28;20244;-90
2021/05/04 03:46:32;;;;;;;2.90;2.30;;;11.80;99.90;;;;;;5017553;28;20201;-90
2021/05/04 03:49:03;;;;;;;2.70;2.33;;;11.80;99.90;;;;;;5034092;28;20208;-90
2021/05/04 03:51:35;;;;;;;2.73;2.30;;;11.80;99.90;;;;;;5034011;28;20293;-90
2021/05/04 03:54:06;;;;;;;2.87;2.57;;;11.80;99.90;;;;;;5034326;28;20323;-90
2021/05/04 03:56:37;;;;;;;2.80;2.20;;;11.80;99.90;;;;;;5033174;28;20243;-90
2021/05/04 03:59:08;;;;;;;2.70;2.30;;;11.80;99.90;;;;;;5033812;28;20228;-90
2021/05/04 04:01:38;;;;;;;2.43;2.23;;;11.70;99.90;;;;;;5033850;28;20236;-90
2021/05/04 04:04:09;;;;;;;2.97;2.50;;;11.70;99.90;;;;;;5016609;28;20208;-90
2021/05/04 04:06:41;;;;;;;2.40;2.20;;;11.60;99.90;;;;;;5016422;28;20204;-90
2021/05/04 04:09:10;;;;;;;2.97;2.40;;;11.60;99.90;;;;;;5004502;28;20236;-91
2021/05/04 04:11:40;;;;;;;2.43;2.23;;;11.70;99.90;;;;;;5035982;28;20313;-91
2021/05/04 04:14:10;;;;;;;2.60;1.73;;;11.70;99.90;;;;;;5034834;28;20653;-89
2021/05/04 04:16:40;;;;;;;3.40;2.50;;;11.60;99.90;;;;;;5037492;28;20216;-90
2021/05/04 04:19:10;;;;;;;3.10;2.13;;;11.70;99.90;;;;;;5038560;28;20296;-90
2021/05/04 04:21:41;;;;;;;2.53;2.33;;;11.70;99.90;;;;;;5038308;28;20251;-91
2021/05/04 04:24:11;;;;;;;2.53;2.30;;;11.70;99.90;;;;;;5040007;28;20209;-91
2021/05/04 04:26:41;;;;;;;1.93;1.83;;;11.70;99.90;;;;;;5038134;28;20212;-90
2021/05/04 04:29:11;;;;;;;2.50;2.30;;;11.70;99.90;;;;;;5041495;28;20657;-91
2021/05/04 04:31:42;;;;;;;2.30;2.10;;;11.70;99.90;;;;;;5054055;28;20228;-91
2021/05/04 04:34:12;;;;;;;6.03;2.20;;;11.60;99.90;;;;;;5058324;28;20201;-91
2021/05/04 04:36:43;;;;;;;2.50;2.20;;;11.70;99.90;;;;;;5052313;28;20212;-89
2021/05/04 04:39:13;;;;;;;2.60;1.77;;;11.80;99.90;;;;;;5041037;28;20271;-90
2021/05/04 04:41:44;;;;;;;1.80;1.70;;;11.70;99.90;;;;;;5038634;28;20213;-90
2021/05/04 04:44:14;;;;;;;2.17;1.90;;;11.70;99.90;;;;;;5021255;28;20645;-90
2021/05/04 04:46:45;;;;;;;3.90;1.90;;;11.70;99.90;;;;;;5036834;28;20209;-90
2021/05/04 04:49:18;;;;;;;3.43;2.27;;;11.80;99.90;;;;;;5020612;28;20209;-90
2021/05/04 04:51:50;;;;;;;2.10;1.90;;;11.80;99.90;;;;;;5037420;28;20237;-90
2021/05/04 04:54:20;;;;;;;2.77;2.20;;;11.80;99.90;;;;;;5020122;28;20259;-90
2021/05/04 04:56:50;;;;;;;2.47;2.27;;;11.60;99.90;;;;;;5054364;28;20204;-90
2021/05/04 04:59:20;;;;;;;2.40;1.60;;;11.70;99.90;;;;;;5056883;28;20240;-90
2021/05/04 05:01:51;;;;;;;2.30;2.10;;;11.70;99.90;;;;;;5056783;28;20664;-90
2021/05/04 05:04:22;;;;;;;2.30;2.00;;;11.70;99.90;;;;;;5039586;28;20205;-90
2021/05/04 05:06:54;;;;;;;2.17;2.00;;;11.70;99.90;;;;;;5056520;28;20601;-90
2021/05/04 05:09:25;;;;;;;2.30;2.10;;;11.80;99.90;;;;;;5057198;28;20216;-89
2021/05/04 05:11:55;;;;;;;4.60;1.93;;;11.80;99.90;;;;;;5056831;28;20262;-91
2021/05/04 05:14:26;;;;;;;2.90;2.20;;;11.70;99.90;;;;;;5056922;28;20279;-91
2021/05/04 05:16:57;;;;;;;2.07;1.97;;;11.80;99.90;;;;;;5055662;28;20258;-91
2021/05/04 05:19:28;;;;;;;2.77;2.23;;;11.70;99.90;;;;;;5056653;28;20219;-91
2021/05/04 05:22:02;;;;;;;1.87;1.77;;;11.70;99.90;;;;;;5039162;28;20646;-90
2021/05/04 05:24:33;;;;;;;1.97;1.73;;;11.70;99.90;;;;;;5036679;28;20292;-90
2021/05/04 05:27:04;;;;;;;2.10;1.57;;;11.70;99.90;;;;;;5034799;28;20267;-91
2021/05/04 05:29:35;;;;;;;1.90;1.70;;;11.70;99.90;;;;;;5037259;28;20200;-91
2021/05/04 05:32:07;;;;;;;3.13;1.50;;;11.70;99.90;;;;;;5036684;28;20263;-91
2021/05/04 05:34:37;;;;;;;3.13;1.70;;;11.70;99.90;;;;;;5036816;28;20212;-91
2021/05/04 05:37:08;;;;;;;1.63;1.50;;;11.70;99.90;;;;;;5035414;28;20688;-91
2021/05/04 05:39:42;;;;;;;3.70;1.70;;;11.70;99.90;;;;;;5036448;28;20238;-91
2021/05/04 05:42:14;;;;;;;2.10;1.60;;;11.60;99.90;;;;;;5036330;28;20232;-90
2021/05/04 05:44:44;;;;;;;1.80;1.70;;;11.70;99.90;;;;;;5036020;28;20693;-90
2021/05/04 05:47:16;;;;;;;1.40;1.30;;;11.70;99.90;;;;;;5036119;28;20321;-91
2021/05/04 05:49:47;;;;;;;1.77;1.67;;;11.70;99.90;;;;;;5036908;28;20205;-90
2021/05/04 05:52:19;;;;;;;1.57;1.47;;;11.70;99.90;;;;;;5036310;28;20336;-91
2021/05/04 05:54:49;;;;;;;4.23;1.53;;;11.70;99.90;;;;;;5036805;28;20249;-90
2021/05/04 05:57:19;;;;;;;4.67;1.33;;;11.60;99.90;;;;;;5036479;28;20708;-89
2021/05/04 05:59:50;;;;;;;2.73;1.37;;;11.60;99.90;;;;;;5035881;28;20723;-91
2021/05/04 06:02:20;;;;;;;1.60;1.50;;;11.70;99.90;;;;;;5036309;28;20259;-89
2021/05/04 06:04:51;;;;;;;2.17;1.67;;;11.70;99.90;;;;;;5036377;28;20231;-89
2021/05/04 06:07:23;;;;;;;1.43;1.33;;;11.60;99.90;;;;;;5035520;28;20650;-89
2021/05/04 06:09:54;;;;;;;1.37;1.27;;;11.70;99.90;;;;;;5035618;28;20700;-90
2021/05/04 06:12:24;;;;;;;1.60;1.47;;;11.70;99.90;;;;;;5035761;28;20256;-90
2021/05/04 06:14:55;;;;;;;1.90;1.80;;;11.70;99.90;;;;;;5035132;28;20208;-91
2021/05/04 06:17:25;;;;;;;4.00;1.77;;;11.70;99.90;;;;;;5035950;28;20556;-90
2021/05/04 06:19:55;;;;;;;2.50;1.53;;;11.70;99.90;;;;;;5036056;28;20228;-90
2021/05/04 06:22:28;;;;;;;1.53;1.40;;;11.70;99.90;;;;;;5035734;28;20741;-90
2021/05/04 06:24:58;;;;;;;1.27;1.17;;;11.60;99.90;;;;;;5035845;28;20255;-91
2021/05/04 06:27:29;;;;;;;1.37;1.27;;;11.50;99.90;;;;;;5036003;28;20212;-90
2021/05/04 06:29:59;;;;;;;1.10;1.10;;;11.60;99.90;;;;;;5018874;28;20303;-90
2021/05/04 06:32:30;;;;;;;1.57;1.47;;;11.70;99.90;;;;;;5035508;28;20243;-90
2021/05/04 06:35:01;;;;;;;2.70;1.37;;;11.70;99.90;;;;;;5034925;28;20213;-90
2021/05/04 06:37:33;;;;;;;1.20;1.10;;;11.60;99.90;;;;;;5018480;28;20764;-89
2021/05/04 06:40:03;;;;;;;2.93;1.50;;;11.60;99.90;;;;;;5035916;28;20358;-90
2021/05/04 06:42:33;;;;;;;1.40;1.30;;;11.70;99.90;;;;;;5035802;28;20205;-89
2021/05/04 06:45:04;;;;;;;1.60;1.50;;;11.60;99.90;;;;;;5035137;28;20228;-90
2021/05/04 06:47:35;;;;;;;1.70;1.47;;;11.60;99.90;;;;;;5047114;28;20227;-90
2021/05/04 06:50:07;;;;;;;1.30;1.20;;;11.60;99.90;;;;;;5056399;28;20256;-90
2021/05/04 06:52:39;;;;;;;1.40;1.30;;;11.60;99.90;;;;;;5067078;28;20243;-91
2021/05/04 06:55:10;;;;;;;1.67;1.30;;;11.70;99.90;;;;;;5060462;28;20270;-90
2021/05/04 06:57:41;;;;;;;1.43;1.33;;;11.60;99.90;;;;;;5060496;28;20265;-90
2021/05/04 07:00:12;;;;;;;2.17;1.40;;;11.70;99.90;;;;;;5058254;28;20200;-90
2021/05/04 07:02:42;;;;;;;1.80;1.30;;;11.70;99.90;;;;;;5040092;28;20270;-90
2021/05/04 07:05:13;;;;;;;2.83;1.40;;;11.70;99.90;;;;;;5054601;28;20240;-90
2021/05/04 07:07:45;;;;;;;1.90;1.30;;;11.60;99.90;;;;;;5055410;28;20279;-91
2021/05/04 07:10:16;;;;;;;2.27;1.60;;;11.60;99.90;;;;;;5055095;28;20231;-90
2021/05/04 07:12:46;;;;;;;2.30;1.60;;;11.60;99.90;;;;;;5054531;28;20718;-91
2021/05/04 07:15:17;;;;;;;1.70;1.60;;;11.60;99.90;;;;;;5054260;28;20240;-91
2021/05/04 07:17:48;;;;;;;1.53;1.33;;;11.60;99.90;;;;;;5054471;28;20220;-90
2021/05/04 07:20:21;;;;;;;1.63;1.40;;;11.60;99.90;;;;;;5054800;28;20212;-91
2021/05/04 07:22:55;;;;;;;1.20;1.10;;;11.50;99.90;;;;;;5054382;28;20310;-90
2021/05/04 07:25:26;;;;;;;1.40;1.30;;;11.60;99.90;;;;;;5053519;28;20230;-91
2021/05/04 07:27:57;;;;;;;1.40;1.03;;;11.50;99.90;;;;;;5037116;28;20247;-91
2021/05/04 07:30:29;;;;;;;1.43;1.33;;;11.50;99.90;;;;;;5054929;28;20228;-90
2021/05/04 07:33:00;;;;;;;3.13;1.97;;;11.50;99.90;;;;;;5054419;28;20228;-90
2021/05/04 07:35:31;;;;;;;1.90;1.70;;;11.50;99.90;;;;;;5053858;28;20266;-89
2021/05/04 07:38:02;;;;;;;1.77;1.67;;;11.40;99.90;;;;;;5054069;28;20208;-90
2021/05/04 07:40:32;;;;;;;4.63;1.67;;;11.40;99.90;;;;;;5054101;28;20289;-90
2021/05/04 07:43:02;;;;;;;2.03;1.80;;;11.40;99.90;;;;;;5037286;28;20283;-90
2021/05/04 07:45:33;;;;;;;1.77;1.67;;;11.40;99.90;;;;;;5053254;28;20243;-90
2021/05/04 07:48:04;;;;;;;2.37;1.40;;;11.30;99.90;;;;;;5054124;28;20239;-90
2021/05/04 07:50:34;;;;;;;2.73;1.63;;;11.30;99.90;;;;;;5049681;28;20236;-90
2021/05/04 07:53:07;;;;;;;2.43;1.50;;;11.30;99.90;;;;;;5033869;28;20236;-90
2021/05/04 07:55:37;;;;;;;4.13;1.70;;;11.30;99.90;;;;;;5033325;28;20209;-89
2021/05/04 07:58:07;;;;;;;4.33;1.90;;;11.30;99.90;;;;;;5034068;28;20661;-89
2021/05/04 08:00:38;;;;;;;1.93;1.83;;;11.30;99.90;;;;;;5034272;28;20210;-89
2021/05/04 08:03:09;;;;;;;4.63;1.77;;;11.40;99.90;;;;;;5033842;28;20200;-89
2021/05/04 08:05:40;;;;;;;7.07;1.63;;;11.40;99.90;;;;;;5016127;28;20200;-90
2021/05/04 08:08:13;;;;;;;3.83;1.90;;;11.40;99.90;;;;;;5035698;28;20209;-89
2021/05/04 08:10:44;;;;;;;2.77;1.93;;;11.40;99.90;;;;;;5034291;28;20279;-90
2021/05/04 08:13:14;;;;;;;7.73;1.80;;;11.40;99.90;;;;;;5035012;28;20209;-90
2021/05/04 08:15:44;;;;;;;5.03;1.60;;;11.30;99.90;;;;;;5033948;28;20251;-91
2021/05/04 08:18:15;;;;;;;1.33;1.23;;;11.40;99.90;;;;;;5034371;28;20205;-90
2021/05/04 08:20:48;;;;;;;2.00;1.50;;;11.30;99.90;;;;;;5034774;28;20296;-90
2021/05/04 08:23:22;;;;;;;1.30;1.20;;;11.40;99.90;;;;;;5034357;28;20236;-90
2021/05/04 08:25:52;;;;;;;1.60;1.50;;;11.30;99.90;;;;;;5034066;28;20266;-89
2021/05/04 08:28:23;;;;;;;4.77;1.47;;;11.30;99.90;;;;;;5034716;28;20221;-90
2021/05/04 08:30:53;;;;;;;1.13;1.13;;;11.30;99.90;;;;;;5034280;28;20228;-90
2021/05/04 08:33:24;;;;;;;1.43;1.33;;;11.30;99.90;;;;;;5034465;28;20637;-90
2021/05/04 08:35:53;;;;;;;3.20;1.30;;;11.20;99.90;;;;;;5034090;28;20689;-90
2021/05/04 08:38:26;;;;;;;1.60;1.30;;;11.20;99.90;;;;;;5034260;28;20251;-90
2021/05/04 08:40:55;;;;;;;1.30;1.13;;;11.20;99.90;;;;;;5034640;28;20251;-89
2021/05/04 08:43:26;;;;;;;3.17;1.20;;;11.20;99.90;;;;;;5034098;28;20205;-88
2021/05/04 08:45:58;;;;;;;2.97;1.43;;;11.20;99.90;;;;;;5033681;28;20212;-90
2021/05/04 08:48:30;;;;;;;3.90;1.60;;;11.30;99.90;;;;;;5017197;28;20215;-90
2021/05/04 08:51:02;;;;;;;4.20;1.87;;;11.30;99.90;;;;;;5034445;28;20209;-90
2021/05/04 08:53:54;;;;;;;1.70;1.60;;;11.30;99.90;;;;;;5021427;28;20220;-90
2021/05/04 08:56:25;;;;;;;2.80;1.50;;;11.30;99.90;;;;;;5044455;28;20280;-88
2021/05/04 08:58:56;;;;;;;4.30;1.90;;;11.30;99.90;;;;;;5054771;28;20209;-90
2021/05/04 09:01:26;;;;;;;2.17;1.97;;;11.20;99.90;;;;;;5042860;28;20630;-90
2021/05/04 09:03:59;;;;;;;1.90;1.77;;;11.30;99.90;;;;;;5019097;28;20204;-90
2021/05/04 09:06:35;;;;;;;2.10;1.87;;;11.30;99.90;;;;;;5056560;28;20201;-90
2021/05/04 09:09:16;;;;;;;1.60;1.50;;;11.30;99.90;;;;;;5068602;28;20196;-90
2021/05/04 09:12:03;;;;;;;1.83;1.60;;;11.40;99.90;;;;;;5062034;28;20236;-91
2021/05/04 09:14:43;;;;;;;2.50;1.63;;;11.30;99.90;;;;;;5057901;28;20266;-90
2021/05/04 09:17:17;;;;;;;2.00;1.90;;;11.30;99.90;;;;;;5057174;28;20208;-90
2021/05/04 09:20:04;;;;;;;1.87;1.60;;;11.30;99.90;;;;;;5057716;28;20208;-90
2021/05/04 09:22:39;;;;;;;3.90;2.20;;;11.30;99.90;;;;;;5058748;28;20208;-90
2021/05/04 09:25:32;;;;;;;2.37;2.17;;;11.40;99.90;;;;;;5057453;28;20281;-89
2021/05/04 09:28:04;;;;;;;3.93;2.10;;;11.40;99.90;;;;;;5058561;28;20227;-89
2021/05/04 09:30:35;;;;;;;3.50;1.93;;;11.40;99.90;;;;;;5061362;28;20208;-90
2021/05/04 09:33:08;;;;;;;2.50;2.30;;;11.40;99.90;;;;;;5060265;28;20800;-90
2021/05/04 09:35:38;;;;;;;2.40;1.97;;;11.40;99.90;;;;;;5057838;28;20197;-90
2021/05/04 09:38:09;;;;;;;1.80;1.57;;;11.40;99.90;;;;;;5060683;28;20211;-90
2021/05/04 09:40:42;;;;;;;1.70;1.60;;;11.40;99.90;;;;;;5057815;28;20212;-90
2021/05/04 09:43:13;;;;;;;1.83;1.70;;;11.50;99.90;;;;;;5057495;28;20613;-90
2021/05/04 09:45:45;;;;;;;1.90;1.27;;;11.50;99.90;;;;;;5058117;28;20227;-89
2021/05/04 09:48:21;;;;;;;1.40;1.30;;;11.50;99.90;;;;;;5059313;28;20209;-89
2021/05/04 09:50:59;;;;;;;1.63;1.20;;;11.40;99.90;;;;;;5056048;28;20321;-89
2021/05/04 09:53:36;;;;;;;1.53;1.43;;;11.40;99.90;;;;;;5056733;28;20235;-90
2021/05/04 09:56:09;;;;;;;1.83;1.27;;;11.40;99.90;;;;;;5056374;28;20631;-89
2021/05/04 09:58:42;;;;;;;1.60;1.50;;;11.40;99.90;;;;;;5034134;28;20242;-89
2021/05/04 10:01:13;;;;;;;1.70;1.60;;;11.40;99.90;;;;;;5019524;28;20198;-89
2021/05/04 10:03:45;;;;;;;1.50;1.40;;;11.40;99.90;;;;;;5036549;28;20366;-90
2021/05/04 10:06:16;;;;;;;3.97;2.43;;;11.40;99.90;;;;;;5035789;28;20213;-89
2021/05/04 10:08:48;;;;;;;3.93;1.70;;;11.40;99.90;;;;;;5036092;28;20212;-90
2021/05/04 10:11:21;;;;;;;2.50;1.63;;;11.40;99.90;;;;;;5018792;28;20266;-89
2021/05/04 10:13:54;;;;;;;2.40;1.73;;;11.40;99.90;;;;;;5035454;28;20222;-90
2021/05/04 10:16:27;;;;;;;1.90;1.80;;;11.40;99.90;;;;;;5035676;28;20271;-90
2021/05/04 10:19:00;;;;;;;2.23;2.00;;;11.30;99.90;;;;;;5036059;28;20229;-90
2021/05/04 10:21:32;;;;;;;2.23;2.03;;;11.30;99.90;;;;;;5036103;28;20205;-90
2021/05/04 10:24:02;;;;;;;2.80;1.80;;;11.30;99.90;;;;;;5036299;28;20244;-90
2021/05/04 10:26:36;;;;;;;2.97;1.80;;;11.40;99.90;;;;;;5038200;28;20683;-91
2021/05/04 10:29:08;;;;;;;2.50;2.10;;;11.30;99.90;;;;;;5036098;28;20212;-90
2021/05/04 10:31:39;;;;;;;3.77;2.30;;;11.40;99.90;;;;;;5036244;28;20252;-90
2021/05/04 10:34:31;;;;;;;4.10;2.70;;;11.40;99.90;;;;;;5036762;28;20216;-91
2021/05/04 10:37:03;;;;;;;3.03;2.73;;;11.30;99.90;;;;;;5035050;28;20209;-90
2021/05/04 10:39:41;;;;;;;4.03;3.27;;;11.40;99.90;;;;;;5036627;28;20209;-91
2021/05/04 10:42:16;;;;;;;3.80;3.50;;;11.40;99.90;;;;;;5038257;28;20267;-90
2021/05/04 10:45:09;;;;;;;4.20;3.80;;;11.40;99.90;;;;;;5035696;28;20258;-89
2021/05/04 10:47:51;;;;;;;4.30;3.90;;;11.30;99.90;;;;;;5014199;28;20211;-90
2021/05/04 10:50:24;;;;;;;6.83;4.37;;;11.30;99.90;;;;;;5035351;28;20209;-89
2021/05/04 10:53:10;;;;;;;5.33;4.83;;;11.40;99.90;;;;;;5035167;28;20268;-89
2021/05/04 10:56:09;;;;;;;6.73;5.60;;;11.30;99.90;;;;;;5035321;28;20228;-89
2021/05/04 10:59:01;;;;;;;7.17;5.83;;;11.30;99.90;;;;;;5035139;28;20258;-90
2021/05/04 11:01:31;;;;;;;7.77;7.07;;;11.20;99.90;;;;;;5032248;28;20213;-90
2021/05/04 11:04:02;;;;;;;7.33;6.53;;;11.20;99.90;;;;;;5035681;28;20273;-90
2021/05/04 11:06:57;;;;;;;7.80;7.03;;;11.20;99.90;;;;;;5035577;28;20209;-90
2021/05/04 11:09:27;;;;;;;9.20;7.50;;;11.20;99.90;;;;;;5034994;28;20955;-90
2021/05/04 11:11:57;;;;;;;10.07;7.77;;;11.20;99.90;;;;;;5038685;28;20291;-89
2021/05/04 11:14:34;;;;;;;9.37;8.47;;;11.20;99.90;;;;;;5049960;28;20205;-90
2021/05/04 11:17:22;;;;;;;8.23;6.13;;;11.20;99.90;;;;;;5049482;28;20308;-91
2021/05/04 11:19:53;;;;;;;6.90;5.23;;;11.10;99.90;;;;;;5031221;28;20312;-90
2021/05/04 11:22:25;;;;;;;6.47;5.30;;;10.90;99.90;;;;;;5035961;28;20205;-90
2021/05/04 11:24:57;;;;;;;5.73;4.50;;;10.80;99.90;;;;;;5049888;28;20193;-92
2021/05/04 11:27:33;;;;;;;5.43;3.97;;;10.80;99.90;;;;;;5023131;28;20213;-90
2021/05/04 11:30:06;;;;;;;6.20;4.30;;;10.70;99.90;;;;;;5041408;28;20704;-91
2021/05/04 11:32:45;;;;;;;4.70;4.23;;;10.70;99.90;;;;;;5041587;28;20240;-91
2021/05/04 11:35:17;;;;;;;4.23;3.33;;;10.60;99.90;;;;;;5040856;28;20208;-90
2021/05/04 11:37:51;;;;;;;4.23;3.83;;;10.60;99.90;;;;;;5040932;28;20204;-90
2021/05/04 11:40:24;;;;;;;3.77;3.30;;;10.60;99.90;;;;;;5038789;28;20270;-90
2021/05/04 11:42:57;;;;;;;5.80;3.90;;;10.60;99.90;;;;;;5042557;28;20236;-91
2021/05/04 11:45:31;;;;;;;4.87;3.90;;;10.50;99.90;;;;;;5042740;28;20213;-90
2021/05/04 11:48:06;;;;;;;4.90;3.77;;;10.40;99.90;;;;;;5026431;28;20234;-89
2021/05/04 11:50:39;;;;;;;3.67;3.37;;;10.40;99.90;;;;;;5041094;28;20204;-91
2021/05/04 11:53:11;;;;;;;4.00;3.70;;;10.40;99.90;;;;;;5022856;28;20256;-90
2021/05/04 11:55:43;;;;;;;4.73;4.10;;;10.40;99.90;;;;;;5021252;28;20239;-89
2021/05/04 11:58:18;;;;;;;4.73;4.10;;;10.40;99.90;;;;;;5021235;28;20266;-90
2021/05/04 12:00:58;;;;;;;6.27;4.40;;;10.30;99.90;;;;;;5036395;28;20204;-89
2021/05/04 12:03:29;;;;;;;4.83;3.80;;;10.20;99.90;;;;;;5034475;28;20304;-90
2021/05/04 12:06:01;;;;;;;6.77;3.50;;;10.20;99.90;;;;;;5033346;28;20201;-90
2021/05/04 12:08:31;;;;;;;5.63;3.83;;;10.20;99.90;;;;;;5036490;28;20269;-90
2021/05/04 12:11:01;;;;;;;3.73;3.43;;;10.10;99.90;;;;;;5034464;28;20228;-90
2021/05/04 12:13:41;;;;;;;3.97;2.93;;;10.00;99.90;;;;;;5033810;28;20688;-90
2021/05/04 12:16:13;;;;;;;3.93;2.40;;;10.00;99.90;;;;;;5034157;28;20311;-90
2021/05/04 12:18:43;;;;;;;4.10;2.37;;;9.90;99.90;;;;;;5033880;28;20299;-89
2021/05/04 12:21:14;;;;;;;2.40;2.00;;;9.90;99.90;;;;;;5034516;28;20677;-90
2021/05/04 12:23:45;;;;;;;3.50;2.27;;;9.90;99.90;;;;;;5037227;28;20514;-90
2021/05/04 12:26:18;;;;;;;4.43;2.37;;;9.90;99.90;;;;;;5035708;28;20205;-90
2021/05/04 12:28:50;;;;;;;3.00;1.60;;;9.90;99.90;;;;;;5036863;28;20209;-90
2021/05/04 12:31:29;;;;;;;1.97;1.63;;;9.90;99.90;;;;;;5034098;28;20212;-90
2021/05/04 12:34:00;;;;;;;2.57;1.67;;;9.80;99.90;;;;;;5034480;28;20220;-91
2021/05/04 12:36:35;;;;;;;2.97;1.60;;;9.80;99.90;;;;;;5037105;28;20252;-90
2021/05/04 12:39:11;;;;;;;1.50;1.40;;;9.80;99.90;;;;;;5038196;28;20243;-90
2021/05/04 12:41:48;;;;;;;3.80;1.57;;;9.80;99.90;;;;;;5038209;28;20307;-89
2021/05/04 12:44:23;;;;;;;1.87;1.10;;;9.80;99.90;;;;;;5039515;28;20208;-90
2021/05/04 12:46:55;;;;;;;1.77;1.20;;;9.80;99.90;;;;;;5044728;28;20213;-89
2021/05/04 12:49:35;;;;;;;1.50;1.10;;;9.70;99.90;;;;;;5047418;28;20214;-90
2021/05/04 12:52:10;;;;;;;1.77;1.20;;;9.80;99.90;;;;;;5042458;28;20225;-89
2021/05/04 12:54:43;;;;;;;1.57;1.30;;;9.80;99.90;;;;;;5021912;28;20200;-89
2021/05/04 12:57:20;;;;;;;3.37;1.20;;;9.80;99.90;;;;;;5036825;28;20204;-89
2021/05/04 12:59:52;;;;;;;1.50;0.97;;;9.80;99.90;;;;;;5037153;28;20224;-90
2021/05/04 13:02:26;;;;;;;2.23;1.00;;;9.70;99.90;;;;;;5037859;28;20278;-88
2021/05/04 13:04:59;;;;;;;3.07;1.20;;;9.70;99.90;;;;;;5037229;28;20250;-90
2021/05/04 13:07:33;;;;;;;3.20;1.20;;;9.80;99.90;;;;;;5038488;28;20223;-89
2021/05/04 13:10:11;;;;;;;1.77;1.00;;;9.80;99.90;;;;;;5040095;28;20259;-89
2021/05/04 13:12:51;;;;;;;3.30;1.57;;;9.80;99.90;;;;;;5039405;28;20232;-89